Time;durP1;ratioP1;P1;durP2;ratioP2;P2;SDS_P1;SDS_P2;PMS_P1;PMS_P2;Temp;Humidity;BMP_temperature;BMP_pressure;BME280_temperature;BME280_humidity;BME280_pressure;Samples;Min_cycle;Max_cycle;Signal;HPM_P1;HPM_P2
2022/09/15 00:01:26;;;;;;;2.38;1.48;;;22.30;73.80;;;;;;5115905;28;20479;-67
2022/09/15 00:03:52;;;;;;;3.70;1.50;;;22.30;73.80;;;;;;5114543;28;20028;-67
2022/09/15 00:06:18;;;;;;;3.15;1.50;;;22.30;73.70;;;;;;5114583;28;20045;-67
2022/09/15 00:08:43;;;;;;;4.20;1.50;;;22.30;73.70;;;;;;5114530;28;20403;-67
2022/09/15 00:11:17;;;;;;;5.43;1.40;;;22.30;73.70;;;;;;5115580;28;20034;-67
2022/09/15 00:13:42;;;;;;;2.03;1.33;;;22.40;73.70;;;;;;5114612;28;20024;-67
2022/09/15 00:16:09;;;;;;;2.50;1.70;;;22.30;74.80;;;;;;5097534;28;20475;-67
2022/09/15 00:18:35;;;;;;;2.85;1.33;;;22.40;73.90;;;;;;5074123;28;20060;-67
2022/09/15 00:21:06;;;;;;;2.55;1.55;;;22.40;73.80;;;;;;5074385;28;20052;-67
2022/09/15 00:23:32;;;;;;;2.42;1.33;;;22.40;73.80;;;;;;5074414;28;20017;-67
2022/09/15 00:25:58;;;;;;;3.80;1.65;;;22.40;73.80;;;;;;5108983;28;20051;-67
2022/09/15 00:28:23;;;;;;;2.45;1.50;;;22.40;73.90;;;;;;5115398;28;20055;-67
2022/09/15 00:30:52;;;;;;;3.08;1.85;;;22.30;73.80;;;;;;5115379;28;20511;-67
2022/09/15 00:33:18;;;;;;;4.03;1.70;;;22.40;73.90;;;;;;5113991;28;20023;-67
2022/09/15 00:35:45;;;;;;;2.80;1.85;;;22.40;73.80;;;;;;5097237;28;20027;-67
2022/09/15 00:38:11;;;;;;;1.83;1.40;;;22.30;73.80;;;;;;5114087;28;20111;-67
2022/09/15 00:40:48;;;;;;;1.90;1.52;;;22.40;73.90;;;;;;5115060;28;20031;-67
2022/09/15 00:43:15;;;;;;;3.88;1.65;;;22.40;73.90;;;;;;5097190;28;20407;-67
2022/09/15 00:45:40;;;;;;;5.15;1.70;;;22.40;73.80;;;;;;5096927;28;20023;-67
2022/09/15 00:48:09;;;;;;;3.28;1.75;;;22.30;73.70;;;;;;5114956;28;20030;-67
2022/09/15 00:50:35;;;;;;;4.40;1.95;;;22.40;73.80;;;;;;5113706;28;20118;-67
2022/09/15 00:53:02;;;;;;;2.35;1.58;;;22.40;73.80;;;;;;5113737;28;20024;-67
2022/09/15 00:55:35;;;;;;;4.07;1.85;;;22.40;73.80;;;;;;5113767;28;20030;-67
2022/09/15 00:58:06;;;;;;;3.38;1.80;;;22.40;73.80;;;;;;5113807;28;20444;-67
2022/09/15 01:00:32;;;;;;;2.10;1.70;;;22.40;73.80;;;;;;5113589;28;20491;-67
2022/09/15 01:02:58;;;;;;;4.55;1.70;;;22.40;73.80;;;;;;5114765;28;20035;-67
2022/09/15 01:05:37;;;;;;;2.58;1.90;;;22.40;73.80;;;;;;5113311;28;20035;-67
2022/09/15 01:08:09;;;;;;;5.18;2.50;;;22.40;73.90;;;;;;5098100;28;20015;-67
2022/09/15 01:10:37;;;;;;;4.28;1.92;;;22.40;73.90;;;;;;5113214;28;20048;-67
2022/09/15 01:13:05;;;;;;;4.28;1.77;;;22.40;73.90;;;;;;5113537;28;20077;-67
2022/09/15 01:15:49;;;;;;;3.55;2.00;;;22.40;73.90;;;;;;5096641;28;20091;-67
2022/09/15 01:18:49;;;;;;;3.45;1.77;;;22.40;73.90;;;;;;5079720;28;20480;-67
2022/09/15 01:21:23;;;;;;;5.97;1.70;;;22.40;73.80;;;;;;5061708;28;20033;-67
2022/09/15 01:24:13;;;;;;;3.63;1.92;;;22.40;73.90;;;;;;5072595;28;20029;-67
2022/09/15 01:26:59;;;;;;;8.25;2.28;;;22.40;74.00;;;;;;5092976;28;20035;-67
2022/09/15 01:29:58;;;;;;;4.30;2.42;;;22.40;73.90;;;;;;5093804;28;20012;-67
2022/09/15 01:33:03;;;;;;;2.72;2.10;;;22.40;73.90;;;;;;5079629;28;20016;-67
2022/09/15 01:35:59;;;;;;;2.42;1.88;;;22.40;74.00;;;;;;5075620;28;20496;-67
2022/09/15 01:38:31;;;;;;;5.85;2.30;;;22.40;74.00;;;;;;5079050;28;20020;-67
2022/09/15 01:41:07;;;;;;;2.78;2.00;;;22.40;74.00;;;;;;5074187;28;20024;-67
2022/09/15 01:43:35;;;;;;;2.88;1.80;;;22.40;74.00;;;;;;5074478;28;20028;-67
2022/09/15 01:46:00;;;;;;;3.78;2.20;;;22.40;74.00;;;;;;5074175;28;20020;-67
2022/09/15 01:48:26;;;;;;;3.70;2.00;;;22.40;74.00;;;;;;5072802;28;20052;-67
2022/09/15 01:50:54;;;;;;;2.88;1.85;;;22.40;74.00;;;;;;5074657;28;20021;-67
2022/09/15 01:53:21;;;;;;;2.58;1.77;;;22.40;74.00;;;;;;5076308;28;20035;-67
2022/09/15 01:55:59;;;;;;;3.00;2.35;;;22.40;74.00;;;;;;5060424;28;20043;-67
2022/09/15 01:58:25;;;;;;;5.07;2.40;;;22.40;74.00;;;;;;5076207;28;20025;-67
2022/09/15 02:01:32;;;;;;;5.03;1.90;;;22.40;74.00;;;;;;5074556;28;20043;-67
2022/09/15 02:04:04;;;;;;;5.07;2.25;;;22.40;74.00;;;;;;5074795;28;20100;-67
2022/09/15 02:06:36;;;;;;;5.25;2.40;;;22.40;74.00;;;;;;5072609;28;20571;-67
2022/09/15 02:09:12;;;;;;;4.25;2.15;;;22.40;73.90;;;;;;5072203;28;20044;-67
2022/09/15 02:11:44;;;;;;;4.68;2.35;;;22.40;73.90;;;;;;5071644;28;20028;-67
2022/09/15 02:14:19;;;;;;;3.25;2.05;;;22.40;74.00;;;;;;5071921;28;20025;-67
2022/09/15 02:16:47;;;;;;;5.32;1.92;;;22.40;73.90;;;;;;5071448;28;20060;-67
2022/09/15 02:19:30;;;;;;;4.15;1.85;;;22.40;73.90;;;;;;5071343;28;20059;-67
2022/09/15 02:22:13;;;;;;;7.18;2.33;;;22.40;73.90;;;;;;5071517;28;20381;-68
2022/09/15 02:24:48;;;;;;;3.50;2.08;;;22.40;73.90;;;;;;5082967;28;20093;-67
2022/09/15 02:27:16;;;;;;;3.35;1.75;;;22.40;74.00;;;;;;5075175;28;20056;-67
2022/09/15 02:29:43;;;;;;;3.35;2.30;;;22.40;74.00;;;;;;5056763;28;20404;-66
2022/09/15 02:32:09;;;;;;;3.75;2.13;;;22.40;74.00;;;;;;5056624;28;20020;-67
2022/09/15 02:34:37;;;;;;;2.65;1.77;;;22.40;74.00;;;;;;5071976;28;20074;-67
2022/09/15 02:37:03;;;;;;;2.65;2.00;;;22.40;74.00;;;;;;5073437;28;20031;-67
2022/09/15 02:39:34;;;;;;;7.32;2.17;;;22.40;74.00;;;;;;5073539;28;20040;-67
2022/09/15 02:42:01;;;;;;;5.68;2.25;;;22.40;74.00;;;;;;5058399;28;20023;-67
2022/09/15 02:44:29;;;;;;;3.17;2.22;;;22.40;74.00;;;;;;5056736;28;20480;-67
2022/09/15 02:46:56;;;;;;;3.30;2.20;;;22.40;74.00;;;;;;5072785;28;20020;-67
2022/09/15 02:49:22;;;;;;;2.65;1.83;;;22.40;74.00;;;;;;5073088;28;20047;-67
2022/09/15 02:51:47;;;;;;;2.50;1.80;;;22.40;74.00;;;;;;5073733;28;20033;-67
2022/09/15 02:54:13;;;;;;;2.30;2.10;;;22.40;74.00;;;;;;5071816;28;20017;-67
2022/09/15 02:56:39;;;;;;;2.92;1.80;;;22.40;74.10;;;;;;5072921;28;20432;-67
2022/09/15 02:59:05;;;;;;;2.80;1.77;;;22.40;74.00;;;;;;5074772;28;20019;-67
2022/09/15 03:01:33;;;;;;;3.08;1.80;;;22.40;73.90;;;;;;5072121;28;20028;-67
2022/09/15 03:04:00;;;;;;;2.97;2.03;;;22.40;73.90;;;;;;5072311;28;20029;-67
2022/09/15 03:06:28;;;;;;;4.15;2.20;;;22.40;74.00;;;;;;5071290;28;20017;-67
2022/09/15 03:08:55;;;;;;;4.25;1.95;;;22.40;75.00;;;;;;5071118;28;20468;-67
2022/09/15 03:11:22;;;;;;;4.78;2.08;;;22.40;73.90;;;;;;5071131;28;20063;-67
2022/09/15 03:13:51;;;;;;;7.35;2.33;;;22.40;73.90;;;;;;5070943;28;20538;-67
2022/09/15 03:16:17;;;;;;;4.28;1.90;;;22.40;73.90;;;;;;5070490;28;20017;-67
2022/09/15 03:18:42;;;;;;;4.97;1.90;;;22.40;73.90;;;;;;5072167;28;20017;-67
2022/09/15 03:21:10;;;;;;;2.25;1.65;;;22.40;73.90;;;;;;5072085;28;20456;-67
2022/09/15 03:23:35;;;;;;;3.20;2.05;;;22.40;73.90;;;;;;5084192;28;20400;-67
2022/09/15 03:26:02;;;;;;;2.63;1.67;;;22.40;73.90;;;;;;5109588;28;20053;-67
2022/09/15 03:28:27;;;;;;;3.50;1.67;;;22.40;74.80;;;;;;5111466;28;20043;-67
2022/09/15 03:30:53;;;;;;;2.47;1.60;;;22.40;73.90;;;;;;5107401;28;20055;-67
2022/09/15 03:33:20;;;;;;;3.35;1.90;;;22.40;73.90;;;;;;5092258;28;20028;-67
2022/09/15 03:35:46;;;;;;;2.20;1.63;;;22.40;73.80;;;;;;5090906;28;20027;-67
2022/09/15 03:38:12;;;;;;;4.45;1.90;;;22.40;73.80;;;;;;5092227;28;20020;-67
2022/09/15 03:40:38;;;;;;;1.73;1.63;;;22.40;73.80;;;;;;5091757;28;20523;-67
2022/09/15 03:43:03;;;;;;;3.45;1.95;;;22.40;73.80;;;;;;5092019;28;20059;-67
2022/09/15 03:45:29;;;;;;;3.53;1.92;;;22.40;73.80;;;;;;5091794;28;20063;-67
2022/09/15 03:47:55;;;;;;;2.72;1.50;;;22.40;73.80;;;;;;5092009;28;20097;-67
2022/09/15 03:50:20;;;;;;;4.35;1.83;;;22.40;73.80;;;;;;5091712;28;20040;-67
2022/09/15 03:52:46;;;;;;;2.50;1.50;;;22.40;73.80;;;;;;5091961;28;20012;-67
2022/09/15 03:55:11;;;;;;;5.57;1.77;;;22.40;73.70;;;;;;5091256;28;20089;-67
2022/09/15 03:57:37;;;;;;;1.90;1.52;;;22.40;73.80;;;;;;5075208;28;20429;-67
2022/09/15 04:00:04;;;;;;;2.95;1.73;;;22.40;73.70;;;;;;5075342;28;20033;-67
2022/09/15 04:02:30;;;;;;;4.30;1.45;;;22.40;73.70;;;;;;5075246;28;20025;-67
2022/09/15 04:04:56;;;;;;;3.63;1.50;;;22.40;73.70;;;;;;5075244;28;20115;-67
2022/09/15 04:07:21;;;;;;;3.78;1.67;;;22.40;73.70;;;;;;5075125;28;20024;-67
2022/09/15 04:09:47;;;;;;;4.82;1.83;;;22.40;73.70;;;;;;5074924;28;20025;-67
2022/09/15 04:12:13;;;;;;;2.10;1.33;;;22.40;73.70;;;;;;5075069;28;20024;-67
2022/09/15 04:14:38;;;;;;;4.40;1.70;;;22.40;73.70;;;;;;5074959;28;20029;-66
2022/09/15 04:17:04;;;;;;;4.95;1.70;;;22.40;73.70;;;;;;5073668;28;20031;-67
2022/09/15 04:19:30;;;;;;;3.33;1.60;;;22.40;73.70;;;;;;5075217;28;20052;-67
2022/09/15 04:21:55;;;;;;;3.00;1.40;;;22.40;73.70;;;;;;5074885;28;20017;-67
2022/09/15 04:24:21;;;;;;;3.05;1.67;;;22.40;73.70;;;;;;5081706;28;20020;-67
2022/09/15 04:26:47;;;;;;;1.40;1.30;;;22.40;73.70;;;;;;5115788;28;20499;-67
2022/09/15 04:29:14;;;;;;;1.67;1.40;;;22.40;73.70;;;;;;5115411;28;20023;-67
2022/09/15 04:31:40;;;;;;;3.53;1.55;;;22.30;73.60;;;;;;5082585;28;20037;-67
2022/09/15 04:34:05;;;;;;;2.33;1.58;;;22.30;73.60;;;;;;5073663;28;20036;-67
2022/09/15 04:36:31;;;;;;;5.20;1.40;;;22.30;73.60;;;;;;5074702;28;20114;-67
2022/09/15 04:38:57;;;;;;;3.38;1.50;;;22.40;73.70;;;;;;5074528;28;20024;-67
2022/09/15 04:41:23;;;;;;;3.67;1.38;;;22.40;73.70;;;;;;5073411;28;20025;-67
2022/09/15 04:43:49;;;;;;;3.20;1.77;;;22.30;73.60;;;;;;5056562;28;20052;-67
2022/09/15 04:46:15;;;;;;;2.13;1.42;;;22.30;73.60;;;;;;5073448;28;20484;-67
2022/09/15 04:48:41;;;;;;;3.25;1.50;;;22.30;73.60;;;;;;5073148;28;20040;-67
2022/09/15 04:51:10;;;;;;;4.45;1.60;;;22.30;73.60;;;;;;5056613;28;20052;-67
2022/09/15 04:53:36;;;;;;;1.88;1.73;;;22.30;73.60;;;;;;5073190;28;20103;-67
2022/09/15 04:56:09;;;;;;;2.22;1.55;;;22.30;73.60;;;;;;5074178;28;20103;-67
2022/09/15 04:58:43;;;;;;;1.30;1.02;;;22.30;73.60;;;;;;5056463;28;20031;-67
2022/09/15 05:01:29;;;;;;;2.00;1.38;;;22.30;73.60;;;;;;5071637;28;20118;-67
2022/09/15 05:03:55;;;;;;;3.08;2.05;;;22.30;73.60;;;;;;5073603;28;20048;-67
2022/09/15 05:06:28;;;;;;;3.10;1.50;;;22.30;73.60;;;;;;5073081;28;20031;-67
2022/09/15 05:08:55;;;;;;;3.58;1.50;;;22.30;73.60;;;;;;5072422;28;20028;-67
2022/09/15 05:11:21;;;;;;;3.50;1.45;;;22.30;73.60;;;;;;5083727;28;20111;-67
2022/09/15 05:13:46;;;;;;;1.63;1.52;;;22.30;73.70;;;;;;5092905;28;20467;-67
2022/09/15 05:16:20;;;;;;;1.95;1.40;;;22.30;73.60;;;;;;5092937;28;20047;-67
2022/09/15 05:18:46;;;;;;;3.67;1.52;;;22.30;73.60;;;;;;5072823;28;20032;-67
2022/09/15 05:21:13;;;;;;;2.88;1.38;;;22.30;73.60;;;;;;5080524;28;20024;-67
2022/09/15 05:23:39;;;;;;;1.58;1.40;;;22.30;73.60;;;;;;5092785;28;20028;-67
2022/09/15 05:26:06;;;;;;;3.13;1.88;;;22.30;73.60;;;;;;5111718;28;20020;-67
2022/09/15 05:28:32;;;;;;;2.70;1.40;;;22.30;73.60;;;;;;5112923;28;20024;-67
2022/09/15 05:30:58;;;;;;;2.78;1.77;;;22.30;73.60;;;;;;5107625;28;20024;-67
2022/09/15 05:33:24;;;;;;;3.20;1.63;;;22.30;73.70;;;;;;5092773;28;20024;-68
2022/09/15 05:35:54;;;;;;;1.95;1.60;;;22.30;73.60;;;;;;5093810;28;20039;-67
2022/09/15 05:38:19;;;;;;;2.33;1.60;;;22.30;73.60;;;;;;5093964;28;20030;-68
2022/09/15 05:40:45;;;;;;;1.35;1.10;;;22.30;73.70;;;;;;5092509;28;20024;-67
2022/09/15 05:43:11;;;;;;;2.20;1.27;;;22.30;73.70;;;;;;5093348;28;20027;-67
2022/09/15 05:45:36;;;;;;;2.30;1.40;;;22.30;73.70;;;;;;5075480;28;20024;-67
2022/09/15 05:48:03;;;;;;;3.50;1.80;;;22.30;73.70;;;;;;5093379;28;20032;-67
2022/09/15 05:50:29;;;;;;;2.10;1.40;;;22.30;73.90;;;;;;5092326;28;20016;-67
2022/09/15 05:52:55;;;;;;;3.33;1.60;;;22.30;73.90;;;;;;5092177;28;20434;-67
2022/09/15 05:55:21;;;;;;;4.25;1.73;;;22.30;73.80;;;;;;5092247;28;20023;-67
2022/09/15 05:57:47;;;;;;;2.60;1.30;;;22.30;73.90;;;;;;5093363;28;20456;-67
2022/09/15 06:00:13;;;;;;;2.03;1.40;;;22.30;73.90;;;;;;5089700;28;20027;-67
2022/09/15 06:02:38;;;;;;;4.50;1.73;;;22.30;73.90;;;;;;5075484;28;20033;-67
2022/09/15 06:05:04;;;;;;;3.38;1.75;;;22.30;74.00;;;;;;5074856;28;20515;-67
2022/09/15 06:07:30;;;;;;;4.25;1.38;;;22.30;74.00;;;;;;5078121;28;20063;-67
2022/09/15 06:09:56;;;;;;;6.22;2.35;;;22.30;74.10;;;;;;5079108;28;20047;-67
2022/09/15 06:12:22;;;;;;;3.58;1.83;;;22.30;74.10;;;;;;5080834;28;20021;-67
2022/09/15 06:14:49;;;;;;;5.05;1.80;;;22.30;74.40;;;;;;5072785;28;20388;-67
2022/09/15 06:17:18;;;;;;;2.63;1.40;;;22.30;73.90;;;;;;5087235;28;20032;-67
2022/09/15 06:19:44;;;;;;;2.75;1.70;;;22.30;71.70;;;;;;5091922;28;20020;-67
2022/09/15 06:22:10;;;;;;;3.58;1.52;;;22.30;71.30;;;;;;5092953;28;20024;-67
2022/09/15 06:24:36;;;;;;;2.35;1.60;;;22.30;71.30;;;;;;5092697;28;20023;-67
2022/09/15 06:27:01;;;;;;;2.97;1.40;;;22.30;71.50;;;;;;5092646;28;20452;-67
2022/09/15 06:29:27;;;;;;;3.00;1.45;;;22.20;71.50;;;;;;5092879;28;20403;-67
2022/09/15 06:31:53;;;;;;;5.07;1.70;;;22.20;71.40;;;;;;5092537;28;20020;-67
2022/09/15 06:34:19;;;;;;;4.75;1.67;;;22.20;71.50;;;;;;5092755;28;20012;-67
2022/09/15 06:36:45;;;;;;;4.18;2.15;;;22.20;72.50;;;;;;5092729;28;20503;-67
2022/09/15 06:39:10;;;;;;;4.90;1.80;;;22.20;71.40;;;;;;5092413;28;20538;-67
2022/09/15 06:41:36;;;;;;;5.22;2.15;;;22.20;71.50;;;;;;5092545;28;20032;-67
2022/09/15 06:44:02;;;;;;;11.00;2.17;;;22.20;71.60;;;;;;5086101;28;20048;-67
2022/09/15 06:46:28;;;;;;;16.75;3.70;;;22.20;71.60;;;;;;5071107;28;20099;-67
2022/09/15 06:48:53;;;;;;;14.75;3.38;;;22.20;71.70;;;;;;5070550;28;20421;-67
2022/09/15 06:51:22;;;;;;;16.38;3.55;;;22.20;71.80;;;;;;5070361;28;20039;-67
2022/09/15 06:53:48;;;;;;;14.45;3.05;;;22.20;71.90;;;;;;5069632;28;20021;-67
2022/09/15 06:56:17;;;;;;;13.98;3.42;;;22.20;72.00;;;;;;5070116;28;20019;-67
2022/09/15 06:58:43;;;;;;;12.50;3.15;;;22.20;71.90;;;;;;5070136;28;20012;-67
2022/09/15 07:01:22;;;;;;;12.95;3.30;;;22.10;71.90;;;;;;5080473;28;20498;-67
2022/09/15 07:03:48;;;;;;;13.07;3.75;;;22.10;71.90;;;;;;5094864;28;20023;-67
2022/09/15 07:06:14;;;;;;;12.27;3.40;;;22.10;71.90;;;;;;5098041;28;20028;-67
2022/09/15 07:08:40;;;;;;;10.70;2.75;;;22.10;72.00;;;;;;5090951;28;20103;-67
2022/09/15 07:11:06;;;;;;;11.43;3.67;;;22.10;71.90;;;;;;5111361;28;20032;-67
2022/09/15 07:13:32;;;;;;;12.82;3.45;;;22.10;71.90;;;;;;5112856;28;20016;-67
2022/09/15 07:15:59;;;;;;;15.20;3.58;;;22.10;71.90;;;;;;5112646;28;20084;-67
2022/09/15 07:18:25;;;;;;;10.60;3.10;;;22.10;71.90;;;;;;5101810;28;20058;-67
2022/09/15 07:20:51;;;;;;;13.23;3.67;;;22.10;71.90;;;;;;5111245;28;20426;-67
2022/09/15 07:23:17;;;;;;;12.50;3.38;;;22.10;71.90;;;;;;5111247;28;20016;-67
2022/09/15 07:25:43;;;;;;;17.15;3.13;;;22.10;71.90;;;;;;5094489;28;20047;-67
2022/09/15 07:28:15;;;;;;;17.15;4.07;;;22.10;71.90;;;;;;5111309;28;20488;-67
2022/09/15 07:30:41;;;;;;;9.48;2.72;;;22.10;71.90;;;;;;5111891;28;20036;-67
2022/09/15 07:33:08;;;;;;;11.70;3.30;;;22.10;71.80;;;;;;5116334;28;20016;-67
2022/09/15 07:35:33;;;;;;;8.60;2.65;;;22.10;71.70;;;;;;5105473;28;20021;-67
2022/09/15 07:37:59;;;;;;;8.93;3.38;;;22.10;71.80;;;;;;5094757;28;20028;-67
2022/09/15 07:40:26;;;;;;;11.40;3.75;;;22.10;71.90;;;;;;5094790;28;20020;-67
2022/09/15 07:42:51;;;;;;;14.50;3.45;;;22.00;71.80;;;;;;5096202;28;20031;-67
2022/09/15 07:45:17;;;;;;;12.02;3.83;;;22.00;71.80;;;;;;5095660;28;20024;-67
2022/09/15 07:47:43;;;;;;;17.17;3.10;;;22.10;71.80;;;;;;5094748;28;20024;-67
2022/09/15 07:50:08;;;;;;;8.93;3.45;;;22.10;71.80;;;;;;5095590;28;20052;-67
2022/09/15 07:52:34;;;;;;;14.20;3.10;;;22.00;71.80;;;;;;5095569;28;20067;-67
2022/09/15 07:55:00;;;;;;;13.68;3.05;;;22.10;71.90;;;;;;5095652;28;20440;-67
2022/09/15 07:57:26;;;;;;;10.80;3.38;;;22.00;71.80;;;;;;5095534;28;20020;-67
2022/09/15 07:59:51;;;;;;;14.00;3.72;;;22.00;71.70;;;;;;5095682;28;20475;-67
2022/09/15 08:02:18;;;;;;;9.95;3.58;;;22.00;71.70;;;;;;5084945;28;20067;-67
2022/09/15 08:04:44;;;;;;;9.82;3.42;;;22.00;71.80;;;;;;5074266;28;20024;-67
2022/09/15 08:07:10;;;;;;;7.50;2.70;;;22.00;71.80;;;;;;5074951;28;20031;-67
2022/09/15 08:09:36;;;;;;;11.15;3.65;;;22.00;71.70;;;;;;5091881;28;20395;-67
2022/09/15 08:12:02;;;;;;;11.75;3.00;;;22.00;71.80;;;;;;5114584;28;20020;-67
2022/09/15 08:14:30;;;;;;;10.00;3.60;;;22.00;71.70;;;;;;5114643;28;20404;-67
2022/09/15 08:16:59;;;;;;;11.18;3.50;;;22.00;71.80;;;;;;5115762;28;20039;-67
2022/09/15 08:19:26;;;;;;;8.70;3.03;;;22.00;71.70;;;;;;5114651;28;20023;-67
2022/09/15 08:21:52;;;;;;;11.07;3.20;;;22.00;71.70;;;;;;5114193;28;20024;-67
2022/09/15 08:24:18;;;;;;;7.35;2.90;;;22.00;71.70;;;;;;5114332;28;20023;-67
2022/09/15 08:26:43;;;;;;;8.70;3.13;;;22.00;71.70;;;;;;5115381;28;20153;-67
2022/09/15 08:29:09;;;;;;;11.27;3.53;;;22.00;71.70;;;;;;5115460;27;20479;-67
2022/09/15 08:31:35;;;;;;;12.25;3.33;;;22.00;71.70;;;;;;5115455;28;20035;-67
2022/09/15 08:34:05;;;;;;;10.82;3.10;;;22.00;71.70;;;;;;5115553;28;20455;-67
2022/09/15 08:36:30;;;;;;;8.00;2.90;;;22.00;71.70;;;;;;5115034;28;20020;-67
2022/09/15 08:38:56;;;;;;;7.45;2.75;;;22.00;71.70;;;;;;5114259;28;20031;-67
2022/09/15 08:41:33;;;;;;;10.13;3.33;;;22.00;71.70;;;;;;5114196;28;20020;-67
2022/09/15 08:44:19;;;;;;;5.05;2.78;;;22.00;71.70;;;;;;5096332;28;20031;-68
2022/09/15 08:47:02;;;;;;;9.43;3.20;;;22.00;71.70;;;;;;5114312;28;20478;-67
2022/09/15 08:49:51;;;;;;;6.97;3.08;;;22.00;71.70;;;;;;5114663;28;20111;-67
2022/09/15 08:52:39;;;;;;;12.23;3.10;;;22.00;71.60;;;;;;5113895;28;20023;-67
2022/09/15 08:55:12;;;;;;;7.13;2.78;;;21.90;71.60;;;;;;5114952;28;20044;-67
2022/09/15 08:57:38;;;;;;;10.48;3.28;;;22.00;71.70;;;;;;5113787;28;20016;-67
2022/09/15 09:00:05;;;;;;;6.80;2.78;;;22.00;71.70;;;;;;5114956;28;20084;-67
2022/09/15 09:03:00;;;;;;;6.75;2.85;;;22.00;71.60;;;;;;5088644;28;20059;-67
2022/09/15 09:05:44;;;;;;;6.45;2.78;;;22.00;71.70;;;;;;5073187;28;20534;-67
2022/09/15 09:08:25;;;;;;;9.07;3.22;;;21.90;71.50;;;;;;5072926;28;20393;-67
2022/09/15 09:10:55;;;;;;;6.85;2.90;;;22.00;71.60;;;;;;5112814;28;20032;-67
2022/09/15 09:13:35;;;;;;;9.10;2.80;;;21.90;71.60;;;;;;5097255;28;20509;-67
2022/09/15 09:16:16;;;;;;;7.68;2.90;;;21.90;71.50;;;;;;5097419;28;20479;-67
2022/09/15 09:19:11;;;;;;;7.10;2.97;;;21.90;71.60;;;;;;5097997;28;20145;-67
2022/09/15 09:21:40;;;;;;;10.45;3.45;;;22.00;71.60;;;;;;5031572;28;20045;-67
2022/09/15 09:24:12;;;;;;;8.55;2.75;;;21.90;71.60;;;;;;5015640;28;20040;-67
2022/09/15 09:26:38;;;;;;;8.45;3.30;;;21.90;71.60;;;;;;5015206;28;20041;-67
2022/09/15 09:29:15;;;;;;;6.95;2.83;;;21.90;71.60;;;;;;5015328;28;20037;-67
2022/09/15 09:31:41;;;;;;;7.40;3.10;;;21.90;71.50;;;;;;5031578;28;20029;-67
2022/09/15 09:34:20;;;;;;;7.00;3.22;;;21.90;71.60;;;;;;5014655;28;20025;-67
2022/09/15 09:36:54;;;;;;;7.03;3.15;;;21.90;71.50;;;;;;5015306;28;20028;-67
2022/09/15 09:39:19;;;;;;;6.10;2.78;;;21.90;71.50;;;;;;5015512;28;20033;-67
2022/09/15 09:41:46;;;;;;;7.00;2.80;;;21.90;71.50;;;;;;5015098;28;20044;-67
2022/09/15 09:44:12;;;;;;;7.22;3.08;;;21.90;71.50;;;;;;5031137;28;20103;-67
2022/09/15 09:46:38;;;;;;;10.40;3.40;;;21.90;71.50;;;;;;5014852;28;20509;-67
2022/09/15 09:49:12;;;;;;;5.68;2.70;;;21.90;71.50;;;;;;5014467;28;20060;-67
2022/09/15 09:51:39;;;;;;;7.13;2.85;;;21.90;71.50;;;;;;5015742;28;20076;-68
2022/09/15 09:54:15;;;;;;;7.63;3.00;;;21.90;71.50;;;;;;5014566;28;20028;-67
2022/09/15 09:56:43;;;;;;;8.13;2.88;;;21.90;71.50;;;;;;5015004;28;20029;-67
2022/09/15 09:59:38;;;;;;;6.07;2.88;;;21.90;71.50;;;;;;5075572;28;20115;-67
2022/09/15 10:02:10;;;;;;;8.65;3.03;;;21.90;71.50;;;;;;5094896;28;20559;-67
2022/09/15 10:04:37;;;;;;;7.07;2.95;;;21.90;71.50;;;;;;5073003;28;20035;-67
2022/09/15 10:07:03;;;;;;;7.18;2.88;;;21.90;71.50;;;;;;5071695;28;20123;-67
2022/09/15 10:09:29;;;;;;;5.47;2.58;;;21.90;71.50;;;;;;5087444;28;20020;-67
2022/09/15 10:11:56;;;;;;;8.07;3.03;;;21.90;71.50;;;;;;5095368;28;20020;-67
2022/09/15 10:14:29;;;;;;;8.77;3.13;;;21.90;71.50;;;;;;5112155;28;20020;-67
2022/09/15 10:17:05;;;;;;;5.10;2.70;;;21.90;71.60;;;;;;5112208;28;20484;-67
2022/09/15 10:19:51;;;;;;;7.72;3.10;;;21.90;71.50;;;;;;5112164;28;20401;-68
2022/09/15 10:22:24;;;;;;;7.18;2.53;;;21.90;71.50;;;;;;5112166;28;20546;-67
2022/09/15 10:24:50;;;;;;;5.28;2.20;;;21.90;71.60;;;;;;5112132;28;20103;-67
2022/09/15 10:27:35;;;;;;;6.65;2.65;;;21.90;71.50;;;;;;5111982;28;20532;-67
2022/09/15 10:30:13;;;;;;;6.43;2.63;;;21.90;71.50;;;;;;5112019;28;20556;-67
2022/09/15 10:32:40;;;;;;;3.90;2.22;;;21.90;71.50;;;;;;5112943;28;20030;-67
2022/09/15 10:35:10;;;;;;;4.63;2.45;;;21.90;71.50;;;;;;5111860;28;20027;-67
2022/09/15 10:37:55;;;;;;;6.03;3.20;;;21.90;71.50;;;;;;5112101;28;20043;-67
2022/09/15 10:40:24;;;;;;;5.75;2.80;;;21.90;71.50;;;;;;5111954;28;20034;-67
2022/09/15 10:42:51;;;;;;;8.00;2.72;;;21.90;71.60;;;;;;5113096;28;20110;-67
2022/09/15 10:45:34;;;;;;;6.72;3.00;;;21.90;71.50;;;;;;5094914;28;20032;-67
2022/09/15 10:48:51;;;;;;;5.30;2.65;;;21.90;71.50;;;;;;5113001;28;20023;-67
2022/09/15 10:51:42;;;;;;;4.65;2.55;;;21.90;71.50;;;;;;5030023;28;20069;-67
2022/09/15 10:54:14;;;;;;;5.65;2.80;;;21.90;71.50;;;;;;5013874;28;20029;-67
2022/09/15 10:56:46;;;;;;;9.20;2.77;;;21.90;71.50;;;;;;5030222;28;20030;-67
2022/09/15 10:59:30;;;;;;;8.98;2.92;;;21.90;71.50;;;;;;5014100;28;20029;-67
2022/09/15 11:02:37;;;;;;;5.20;2.92;;;21.90;71.50;;;;;;5015170;28;20043;-67
2022/09/15 11:05:23;;;;;;;4.55;2.55;;;21.90;71.50;;;;;;4990412;28;20584;-67
2022/09/15 11:08:07;;;;;;;6.05;2.60;;;21.90;71.50;;;;;;4990997;28;20132;-67
2022/09/15 11:10:41;;;;;;;6.45;2.35;;;21.90;71.50;;;;;;5023263;28;20050;-67
2022/09/15 11:13:26;;;;;;;5.97;2.70;;;21.90;71.60;;;;;;5030189;28;20044;-67
2022/09/15 11:16:25;;;;;;;4.25;2.63;;;21.90;71.60;;;;;;5029850;28;20095;-67
2022/09/15 11:19:00;;;;;;;4.97;2.50;;;21.90;71.60;;;;;;5030072;28;20434;-67
2022/09/15 11:21:31;;;;;;;5.00;2.83;;;21.90;71.60;;;;;;5013441;28;20060;-67
2022/09/15 11:24:23;;;;;;;4.78;2.50;;;21.90;71.60;;;;;;5013528;28;20088;-67
2022/09/15 11:27:03;;;;;;;6.78;3.05;;;21.90;71.60;;;;;;5057530;28;20046;-67
2022/09/15 11:30:01;;;;;;;5.00;2.50;;;21.90;71.60;;;;;;5112346;28;20016;-67
2022/09/15 11:32:35;;;;;;;5.85;2.65;;;21.90;71.60;;;;;;5111394;28;20471;-67
2022/09/15 11:35:28;;;;;;;4.85;2.25;;;21.90;71.60;;;;;;5112328;28;20035;-67
2022/09/15 11:37:55;;;;;;;6.00;2.65;;;21.90;71.60;;;;;;5029907;28;20045;-67
2022/09/15 11:40:42;;;;;;;6.35;2.60;;;21.90;71.60;;;;;;5013431;28;20029;-67
2022/09/15 11:43:17;;;;;;;7.28;2.58;;;21.90;71.60;;;;;;5015579;28;20121;-67
2022/09/15 11:45:46;;;;;;;5.88;2.70;;;21.90;71.70;;;;;;5013861;28;20042;-67
2022/09/15 11:48:20;;;;;;;4.00;2.35;;;21.90;71.60;;;;;;5013418;28;20030;-67
2022/09/15 11:50:47;;;;;;;5.72;2.75;;;21.90;71.60;;;;;;5013910;28;20026;-67
2022/09/15 11:53:20;;;;;;;5.72;2.50;;;21.90;71.60;;;;;;5013538;28;20127;-67
2022/09/15 11:55:52;;;;;;;6.80;2.58;;;21.90;71.70;;;;;;5013189;28;20037;-67
2022/09/15 11:58:32;;;;;;;5.47;2.20;;;21.90;71.70;;;;;;5012970;28;20386;-67
2022/09/15 12:01:07;;;;;;;3.78;2.58;;;21.90;71.70;;;;;;5014332;28;20112;-68
2022/09/15 12:03:58;;;;;;;5.57;2.30;;;21.90;71.80;;;;;;4974199;28;20185;-67
2022/09/15 12:06:31;;;;;;;5.13;2.70;;;21.90;71.80;;;;;;4990176;28;20391;-67
2022/09/15 12:08:59;;;;;;;4.10;2.42;;;21.90;71.90;;;;;;4996917;28;20040;-67
2022/09/15 12:11:26;;;;;;;6.05;2.47;;;21.90;71.90;;;;;;5013320;28;20088;-67
2022/09/15 12:13:53;;;;;;;4.72;2.65;;;21.90;72.00;;;;;;5017246;28;20553;-67
2022/09/15 12:16:19;;;;;;;4.57;2.10;;;21.90;72.00;;;;;;5094150;28;20028;-67
2022/09/15 12:18:50;;;;;;;5.10;2.40;;;21.90;72.00;;;;;;5096346;28;20027;-67
2022/09/15 12:21:21;;;;;;;4.68;2.40;;;21.90;72.00;;;;;;5114463;28;20019;-67
2022/09/15 12:24:15;;;;;;;5.93;2.25;;;21.90;72.00;;;;;;5114669;28;20027;-67
2022/09/15 12:26:42;;;;;;;5.35;2.65;;;21.90;72.00;;;;;;5114654;28;20057;-67
2022/09/15 12:29:26;;;;;;;5.95;2.75;;;21.90;72.00;;;;;;5097475;28;20089;-67
2022/09/15 12:32:16;;;;;;;5.22;2.47;;;21.90;72.00;;;;;;5115509;28;20016;-67
2022/09/15 12:35:00;;;;;;;3.17;2.50;;;21.90;72.10;;;;;;5115444;28;20077;-67
2022/09/15 12:38:10;;;;;;;3.88;2.13;;;21.90;72.00;;;;;;5114498;28;20016;-67
2022/09/15 12:40:39;;;;;;;5.75;2.33;;;21.90;72.10;;;;;;5015966;28;20124;-67
2022/09/15 12:43:11;;;;;;;4.07;2.80;;;21.90;72.00;;;;;;5032406;28;20039;-67
2022/09/15 12:45:37;;;;;;;3.22;2.50;;;21.90;72.10;;;;;;5032352;28;20087;-67
2022/09/15 12:48:19;;;;;;;4.78;2.58;;;21.90;72.10;;;;;;5016299;28;20037;-67
2022/09/15 12:51:13;;;;;;;6.53;2.27;;;21.90;72.40;;;;;;5015843;28;20584;-67
2022/09/15 12:54:11;;;;;;;3.92;2.15;;;21.90;72.00;;;;;;5018509;28;20296;-67
2022/09/15 12:56:37;;;;;;;3.55;2.25;;;21.90;72.00;;;;;;5004346;28;20041;-67
2022/09/15 12:59:04;;;;;;;3.25;2.20;;;21.80;72.10;;;;;;5016041;28;20033;-67
2022/09/15 13:01:31;;;;;;;4.70;2.50;;;21.90;72.10;;;;;;5008676;28;20031;-67
2022/09/15 13:03:57;;;;;;;4.50;2.72;;;21.90;72.20;;;;;;4992842;28;20092;-67
2022/09/15 13:06:29;;;;;;;5.18;2.42;;;21.90;72.20;;;;;;4992692;28;20026;-67